sensor_id;sensor_type;location;lat;lon;timestamp;P1;durP1;ratioP1;P2;durP2;ratioP2
69170;SDS011;56279;47.902;12.308;2023-07-16T00:01:08;7.75;;;3.95;;
69170;SDS011;56279;47.902;12.308;2023-07-16T00:03:09;5.68;;;3.92;;
69170;SDS011;56279;47.902;12.308;2023-07-16T00:05:10;7.13;;;4.10;;
69170;SDS011;56279;47.902;12.308;2023-07-16T00:07:12;7.90;;;3.67;;
69170;SDS011;56279;47.902;12.308;2023-07-16T00:09:13;8.25;;;4.00;;
69170;SDS011;56279;47.902;12.308;2023-07-16T00:11:14;10.55;;;4.60;;
69170;SDS011;56279;47.902;12.308;2023-07-16T00:13:15;8.52;;;3.88;;
69170;SDS011;56279;47.902;12.308;2023-07-16T00:15:17;6.43;;;3.63;;
69170;SDS011;56279;47.902;12.308;2023-07-16T00:17:19;7.97;;;4.10;;
69170;SDS011;56279;47.902;12.308;2023-07-16T00:19:20;7.50;;;3.92;;
69170;SDS011;56279;47.902;12.308;2023-07-16T00:21:22;9.00;;;3.67;;
69170;SDS011;56279;47.902;12.308;2023-07-16T00:23:24;6.65;;;3.40;;
69170;SDS011;56279;47.902;12.308;2023-07-16T00:25:25;6.67;;;4.13;;
69170;SDS011;56279;47.902;12.308;2023-07-16T00:27:26;7.68;;;3.55;;
69170;SDS011;56279;47.902;12.308;2023-07-16T00:29:28;6.88;;;3.60;;
69170;SDS011;56279;47.902;12.308;2023-07-16T00:31:29;7.57;;;3.42;;
69170;SDS011;56279;47.902;12.308;2023-07-16T00:33:30;8.95;;;4.07;;
69170;SDS011;56279;47.902;12.308;2023-07-16T00:35:31;7.30;;;3.47;;
69170;SDS011;56279;47.902;12.308;2023-07-16T00:37:33;5.97;;;3.20;;
69170;SDS011;56279;47.902;12.308;2023-07-16T00:39:36;6.75;;;3.42;;
69170;SDS011;56279;47.902;12.308;2023-07-16T00:41:37;7.15;;;3.50;;
69170;SDS011;56279;47.902;12.308;2023-07-16T00:43:39;8.02;;;3.78;;
69170;SDS011;56279;47.902;12.308;2023-07-16T00:45:40;6.97;;;3.13;;
69170;SDS011;56279;47.902;12.308;2023-07-16T00:47:43;6.45;;;3.70;;
69170;SDS011;56279;47.902;12.308;2023-07-16T00:49:45;6.15;;;3.63;;
69170;SDS011;56279;47.902;12.308;2023-07-16T00:51:46;8.80;;;3.95;;
69170;SDS011;56279;47.902;12.308;2023-07-16T00:53:47;6.43;;;3.53;;
69170;SDS011;56279;47.902;12.308;2023-07-16T00:55:49;5.77;;;3.57;;
69170;SDS011;56279;47.902;12.308;2023-07-16T00:57:50;5.75;;;3.60;;
69170;SDS011;56279;47.902;12.308;2023-07-16T00:59:52;6.43;;;3.55;;
69170;SDS011;56279;47.902;12.308;2023-07-16T01:01:53;7.45;;;3.50;;
69170;SDS011;56279;47.902;12.308;2023-07-16T01:03:54;7.03;;;3.65;;
69170;SDS011;56279;47.902;12.308;2023-07-16T01:06:04;7.00;;;3.67;;
69170;SDS011;56279;47.902;12.308;2023-07-16T01:08:19;5.63;;;3.20;;
69170;SDS011;56279;47.902;12.308;2023-07-16T01:10:25;7.80;;;3.28;;
69170;SDS011;56279;47.902;12.308;2023-07-16T01:12:30;6.53;;;3.50;;
69170;SDS011;56279;47.902;12.308;2023-07-16T01:14:32;6.10;;;3.42;;
69170;SDS011;56279;47.902;12.308;2023-07-16T01:16:34;5.77;;;3.40;;
69170;SDS011;56279;47.902;12.308;2023-07-16T01:18:35;7.47;;;3.42;;
69170;SDS011;56279;47.902;12.308;2023-07-16T01:20:38;10.10;;;3.60;;
69170;SDS011;56279;47.902;12.308;2023-07-16T01:22:49;6.22;;;3.47;;
69170;SDS011;56279;47.902;12.308;2023-07-16T01:25:19;8.52;;;3.50;;
69170;SDS011;56279;47.902;12.308;2023-07-16T01:30:14;8.60;;;3.80;;
69170;SDS011;56279;47.902;12.308;2023-07-16T01:32:16;5.68;;;3.28;;
69170;SDS011;56279;47.902;12.308;2023-07-16T01:34:18;7.13;;;3.58;;
69170;SDS011;56279;47.902;12.308;2023-07-16T01:36:21;5.88;;;3.45;;
69170;SDS011;56279;47.902;12.308;2023-07-16T01:38:24;7.13;;;3.37;;
69170;SDS011;56279;47.902;12.308;2023-07-16T01:40:25;5.75;;;3.60;;
69170;SDS011;56279;47.902;12.308;2023-07-16T01:42:26;6.68;;;3.63;;
69170;SDS011;56279;47.902;12.308;2023-07-16T01:44:28;8.50;;;3.67;;
69170;SDS011;56279;47.902;12.308;2023-07-16T01:46:30;6.30;;;3.53;;
69170;SDS011;56279;47.902;12.308;2023-07-16T01:48:34;6.40;;;3.60;;
69170;SDS011;56279;47.902;12.308;2023-07-16T01:50:37;7.72;;;3.45;;
69170;SDS011;56279;47.902;12.308;2023-07-16T01:52:39;5.70;;;3.45;;
69170;SDS011;56279;47.902;12.308;2023-07-16T01:54:40;7.45;;;4.00;;
69170;SDS011;56279;47.902;12.308;2023-07-16T01:56:41;6.95;;;3.78;;
69170;SDS011;56279;47.902;12.308;2023-07-16T01:58:42;7.07;;;3.27;;
69170;SDS011;56279;47.902;12.308;2023-07-16T02:00:44;6.85;;;3.22;;
69170;SDS011;56279;47.902;12.308;2023-07-16T02:02:45;5.95;;;3.60;;
69170;SDS011;56279;47.902;12.308;2023-07-16T02:04:49;6.90;;;3.85;;
69170;SDS011;56279;47.902;12.308;2023-07-16T02:06:50;8.70;;;4.15;;
69170;SDS011;56279;47.902;12.308;2023-07-16T02:08:58;6.13;;;3.40;;
69170;SDS011;56279;47.902;12.308;2023-07-16T02:11:01;6.15;;;3.33;;
69170;SDS011;56279;47.902;12.308;2023-07-16T02:13:02;9.65;;;4.00;;
69170;SDS011;56279;47.902;12.308;2023-07-16T02:15:05;5.90;;;3.55;;
69170;SDS011;56279;47.902;12.308;2023-07-16T02:17:11;6.72;;;3.85;;
69170;SDS011;56279;47.902;12.308;2023-07-16T02:19:12;6.50;;;3.37;;
69170;SDS011;56279;47.902;12.308;2023-07-16T02:21:14;7.03;;;3.92;;
69170;SDS011;56279;47.902;12.308;2023-07-16T02:23:15;7.95;;;3.45;;
69170;SDS011;56279;47.902;12.308;2023-07-16T02:25:16;6.60;;;3.42;;
69170;SDS011;56279;47.902;12.308;2023-07-16T02:27:19;5.93;;;3.90;;
69170;SDS011;56279;47.902;12.308;2023-07-16T02:29:20;5.77;;;3.20;;
69170;SDS011;56279;47.902;12.308;2023-07-16T02:31:22;8.15;;;3.50;;
69170;SDS011;56279;47.902;12.308;2023-07-16T02:33:23;7.00;;;3.60;;
69170;SDS011;56279;47.902;12.308;2023-07-16T02:35:24;5.78;;;3.30;;
69170;SDS011;56279;47.902;12.308;2023-07-16T02:37:26;6.63;;;3.78;;
69170;SDS011;56279;47.902;12.308;2023-07-16T02:39:27;6.53;;;3.50;;
69170;SDS011;56279;47.902;12.308;2023-07-16T02:41:28;7.65;;;3.53;;
69170;SDS011;56279;47.902;12.308;2023-07-16T02:43:30;6.63;;;3.78;;
69170;SDS011;56279;47.902;12.308;2023-07-16T02:45:31;7.18;;;3.90;;
69170;SDS011;56279;47.902;12.308;2023-07-16T02:47:32;6.38;;;3.60;;
69170;SDS011;56279;47.902;12.308;2023-07-16T02:49:34;7.23;;;3.97;;
69170;SDS011;56279;47.902;12.308;2023-07-16T02:51:35;6.13;;;3.50;;
69170;SDS011;56279;47.902;12.308;2023-07-16T02:53:36;6.40;;;3.60;;
69170;SDS011;56279;47.902;12.308;2023-07-16T02:55:37;6.80;;;3.58;;
69170;SDS011;56279;47.902;12.308;2023-07-16T02:57:39;7.07;;;3.75;;
69170;SDS011;56279;47.902;12.308;2023-07-16T02:59:42;7.27;;;3.70;;
69170;SDS011;56279;47.902;12.308;2023-07-16T03:01:43;8.40;;;4.07;;
69170;SDS011;56279;47.902;12.308;2023-07-16T03:03:47;7.00;;;3.88;;
69170;SDS011;56279;47.902;12.308;2023-07-16T03:05:51;7.55;;;3.97;;
69170;SDS011;56279;47.902;12.308;2023-07-16T03:07:52;6.82;;;4.10;;
69170;SDS011;56279;47.902;12.308;2023-07-16T03:09:54;7.03;;;3.73;;
69170;SDS011;56279;47.902;12.308;2023-07-16T03:11:57;9.00;;;4.57;;
69170;SDS011;56279;47.902;12.308;2023-07-16T03:13:59;8.60;;;3.97;;
69170;SDS011;56279;47.902;12.308;2023-07-16T03:16:00;8.65;;;4.13;;
69170;SDS011;56279;47.902;12.308;2023-07-16T03:18:03;7.53;;;3.67;;
69170;SDS011;56279;47.902;12.308;2023-07-16T03:20:06;6.50;;;3.90;;
69170;SDS011;56279;47.902;12.308;2023-07-16T03:22:08;10.05;;;4.10;;
69170;SDS011;56279;47.902;12.308;2023-07-16T03:24:10;7.80;;;4.40;;
69170;SDS011;56279;47.902;12.308;2023-07-16T03:26:12;6.10;;;3.67;;
69170;SDS011;56279;47.902;12.308;2023-07-16T03:28:13;10.50;;;4.32;;
69170;SDS011;56279;47.902;12.308;2023-07-16T03:30:14;6.47;;;3.57;;
69170;SDS011;56279;47.902;12.308;2023-07-16T03:32:17;6.70;;;3.95;;
69170;SDS011;56279;47.902;12.308;2023-07-16T03:34:18;7.63;;;4.07;;
69170;SDS011;56279;47.902;12.308;2023-07-16T03:36:19;8.68;;;3.88;;
69170;SDS011;56279;47.902;12.308;2023-07-16T03:38:24;9.80;;;4.20;;
69170;SDS011;56279;47.902;12.308;2023-07-16T03:40:29;6.93;;;3.73;;
69170;SDS011;56279;47.902;12.308;2023-07-16T03:42:33;9.20;;;3.83;;
69170;SDS011;56279;47.902;12.308;2023-07-16T03:44:34;7.35;;;4.35;;
69170;SDS011;56279;47.902;12.308;2023-07-16T03:46:38;7.35;;;4.07;;
69170;SDS011;56279;47.902;12.308;2023-07-16T03:48:41;6.85;;;3.70;;
69170;SDS011;56279;47.902;12.308;2023-07-16T03:50:43;7.70;;;4.10;;
69170;SDS011;56279;47.902;12.308;2023-07-16T03:52:44;7.15;;;3.95;;
69170;SDS011;56279;47.902;12.308;2023-07-16T03:54:45;7.55;;;3.95;;
69170;SDS011;56279;47.902;12.308;2023-07-16T03:56:47;7.95;;;3.90;;
69170;SDS011;56279;47.902;12.308;2023-07-16T03:58:48;7.68;;;4.40;;
69170;SDS011;56279;47.902;12.308;2023-07-16T04:00:52;7.73;;;4.20;;
69170;SDS011;56279;47.902;12.308;2023-07-16T04:02:53;7.28;;;4.20;;
69170;SDS011;56279;47.902;12.308;2023-07-16T04:04:54;7.88;;;4.07;;
69170;SDS011;56279;47.902;12.308;2023-07-16T04:06:56;8.85;;;3.90;;
69170;SDS011;56279;47.902;12.308;2023-07-16T04:08:57;9.75;;;4.13;;
69170;SDS011;56279;47.902;12.308;2023-07-16T04:10:58;7.33;;;4.00;;
69170;SDS011;56279;47.902;12.308;2023-07-16T04:13:00;9.70;;;3.92;;
69170;SDS011;56279;47.902;12.308;2023-07-16T04:15:06;7.97;;;4.13;;
69170;SDS011;56279;47.902;12.308;2023-07-16T04:17:10;5.78;;;3.75;;
69170;SDS011;56279;47.902;12.308;2023-07-16T04:19:11;7.50;;;4.13;;
69170;SDS011;56279;47.902;12.308;2023-07-16T04:21:12;8.30;;;3.83;;
69170;SDS011;56279;47.902;12.308;2023-07-16T04:23:14;7.88;;;3.90;;
69170;SDS011;56279;47.902;12.308;2023-07-16T04:25:15;7.47;;;3.97;;
69170;SDS011;56279;47.902;12.308;2023-07-16T04:27:17;7.20;;;3.95;;
69170;SDS011;56279;47.902;12.308;2023-07-16T04:29:19;7.72;;;3.88;;
69170;SDS011;56279;47.902;12.308;2023-07-16T04:31:20;7.63;;;4.23;;
69170;SDS011;56279;47.902;12.308;2023-07-16T04:33:22;8.25;;;4.13;;
69170;SDS011;56279;47.902;12.308;2023-07-16T04:35:23;8.25;;;4.25;;
69170;SDS011;56279;47.902;12.308;2023-07-16T04:37:24;7.18;;;4.03;;
69170;SDS011;56279;47.902;12.308;2023-07-16T04:39:26;6.13;;;4.10;;
69170;SDS011;56279;47.902;12.308;2023-07-16T04:41:27;7.20;;;4.27;;
69170;SDS011;56279;47.902;12.308;2023-07-16T04:43:28;6.35;;;3.97;;
69170;SDS011;56279;47.902;12.308;2023-07-16T04:45:29;6.88;;;4.20;;
69170;SDS011;56279;47.902;12.308;2023-07-16T04:47:31;6.28;;;4.15;;
69170;SDS011;56279;47.902;12.308;2023-07-16T04:49:34;6.32;;;3.85;;
69170;SDS011;56279;47.902;12.308;2023-07-16T04:51:37;7.13;;;4.23;;
69170;SDS011;56279;47.902;12.308;2023-07-16T04:53:38;8.18;;;4.10;;
69170;SDS011;56279;47.902;12.308;2023-07-16T04:55:39;6.05;;;3.53;;
69170;SDS011;56279;47.902;12.308;2023-07-16T04:57:41;9.18;;;4.05;;
69170;SDS011;56279;47.902;12.308;2023-07-16T04:59:42;7.07;;;4.13;;
69170;SDS011;56279;47.902;12.308;2023-07-16T05:01:43;6.60;;;3.70;;
69170;SDS011;56279;47.902;12.308;2023-07-16T05:03:45;8.20;;;3.92;;
69170;SDS011;56279;47.902;12.308;2023-07-16T05:05:46;8.75;;;3.88;;
69170;SDS011;56279;47.902;12.308;2023-07-16T05:07:47;11.65;;;4.07;;
69170;SDS011;56279;47.902;12.308;2023-07-16T05:09:49;7.85;;;3.92;;
69170;SDS011;56279;47.902;12.308;2023-07-16T05:11:50;10.30;;;4.50;;
69170;SDS011;56279;47.902;12.308;2023-07-16T05:13:51;8.90;;;4.35;;
69170;SDS011;56279;47.902;12.308;2023-07-16T05:15:52;8.43;;;4.40;;
69170;SDS011;56279;47.902;12.308;2023-07-16T05:17:54;7.10;;;4.10;;
69170;SDS011;56279;47.902;12.308;2023-07-16T05:19:59;11.13;;;4.85;;
69170;SDS011;56279;47.902;12.308;2023-07-16T05:22:03;7.30;;;3.93;;
69170;SDS011;56279;47.902;12.308;2023-07-16T05:24:05;8.23;;;4.20;;
69170;SDS011;56279;47.902;12.308;2023-07-16T05:26:06;7.50;;;4.45;;
69170;SDS011;56279;47.902;12.308;2023-07-16T05:28:09;7.07;;;4.28;;
69170;SDS011;56279;47.902;12.308;2023-07-16T05:30:11;8.50;;;4.15;;
69170;SDS011;56279;47.902;12.308;2023-07-16T05:32:13;8.33;;;4.37;;
69170;SDS011;56279;47.902;12.308;2023-07-16T05:34:14;8.20;;;4.32;;
69170;SDS011;56279;47.902;12.308;2023-07-16T05:36:15;7.32;;;4.13;;
69170;SDS011;56279;47.902;12.308;2023-07-16T05:38:16;7.15;;;4.60;;
69170;SDS011;56279;47.902;12.308;2023-07-16T05:40:18;8.07;;;4.35;;
69170;SDS011;56279;47.902;12.308;2023-07-16T05:42:19;7.57;;;4.60;;
69170;SDS011;56279;47.902;12.308;2023-07-16T05:44:20;7.50;;;3.80;;
69170;SDS011;56279;47.902;12.308;2023-07-16T05:46:21;7.03;;;3.50;;
69170;SDS011;56279;47.902;12.308;2023-07-16T05:48:23;5.20;;;2.90;;
69170;SDS011;56279;47.902;12.308;2023-07-16T05:50:25;4.68;;;2.50;;
69170;SDS011;56279;47.902;12.308;2023-07-16T05:52:26;6.37;;;2.53;;
69170;SDS011;56279;47.902;12.308;2023-07-16T05:54:28;4.38;;;2.45;;
69170;SDS011;56279;47.902;12.308;2023-07-16T05:56:30;5.65;;;2.65;;
69170;SDS011;56279;47.902;12.308;2023-07-16T05:58:31;5.13;;;3.00;;
69170;SDS011;56279;47.902;12.308;2023-07-16T06:00:32;4.97;;;2.60;;
69170;SDS011;56279;47.902;12.308;2023-07-16T06:02:33;5.23;;;2.70;;
69170;SDS011;56279;47.902;12.308;2023-07-16T06:04:35;4.55;;;2.45;;
69170;SDS011;56279;47.902;12.308;2023-07-16T06:06:36;4.05;;;2.50;;
69170;SDS011;56279;47.902;12.308;2023-07-16T06:08:37;5.03;;;2.75;;
69170;SDS011;56279;47.902;12.308;2023-07-16T06:10:39;5.07;;;3.08;;
69170;SDS011;56279;47.902;12.308;2023-07-16T06:12:40;7.17;;;2.73;;
69170;SDS011;56279;47.902;12.308;2023-07-16T06:14:41;5.40;;;2.90;;
69170;SDS011;56279;47.902;12.308;2023-07-16T06:16:43;5.05;;;3.15;;
69170;SDS011;56279;47.902;12.308;2023-07-16T06:18:45;6.88;;;3.17;;
69170;SDS011;56279;47.902;12.308;2023-07-16T06:20:46;5.93;;;3.35;;
69170;SDS011;56279;47.902;12.308;2023-07-16T06:22:48;5.87;;;3.30;;
69170;SDS011;56279;47.902;12.308;2023-07-16T06:24:49;6.20;;;3.28;;
69170;SDS011;56279;47.902;12.308;2023-07-16T06:26:50;5.57;;;3.20;;
69170;SDS011;56279;47.902;12.308;2023-07-16T06:28:52;5.65;;;3.05;;
69170;SDS011;56279;47.902;12.308;2023-07-16T06:30:53;5.70;;;3.28;;
69170;SDS011;56279;47.902;12.308;2023-07-16T06:32:54;6.13;;;2.90;;
69170;SDS011;56279;47.902;12.308;2023-07-16T06:34:56;7.07;;;2.95;;
69170;SDS011;56279;47.902;12.308;2023-07-16T06:36:57;4.65;;;2.95;;
69170;SDS011;56279;47.902;12.308;2023-07-16T06:38:58;5.13;;;2.95;;
69170;SDS011;56279;47.902;12.308;2023-07-16T06:41:01;6.70;;;3.08;;
69170;SDS011;56279;47.902;12.308;2023-07-16T06:43:02;5.67;;;2.87;;
69170;SDS011;56279;47.902;12.308;2023-07-16T06:45:04;4.80;;;2.80;;
69170;SDS011;56279;47.902;12.308;2023-07-16T06:47:06;5.13;;;2.83;;
69170;SDS011;56279;47.902;12.308;2023-07-16T06:49:07;5.78;;;3.00;;
69170;SDS011;56279;47.902;12.308;2023-07-16T06:51:08;4.63;;;2.83;;
69170;SDS011;56279;47.902;12.308;2023-07-16T06:53:10;4.40;;;2.53;;
69170;SDS011;56279;47.902;12.308;2023-07-16T06:55:12;5.32;;;3.15;;
69170;SDS011;56279;47.902;12.308;2023-07-16T06:57:13;4.90;;;2.80;;
69170;SDS011;56279;47.902;12.308;2023-07-16T06:59:15;4.55;;;2.53;;
69170;SDS011;56279;47.902;12.308;2023-07-16T07:01:16;4.60;;;2.55;;
69170;SDS011;56279;47.902;12.308;2023-07-16T07:03:17;4.90;;;2.40;;
69170;SDS011;56279;47.902;12.308;2023-07-16T07:05:19;4.78;;;2.40;;
69170;SDS011;56279;47.902;12.308;2023-07-16T07:07:21;4.90;;;2.50;;
69170;SDS011;56279;47.902;12.308;2023-07-16T07:09:22;4.25;;;2.42;;
69170;SDS011;56279;47.902;12.308;2023-07-16T07:11:23;4.38;;;2.63;;
69170;SDS011;56279;47.902;12.308;2023-07-16T07:13:24;5.20;;;2.57;;
69170;SDS011;56279;47.902;12.308;2023-07-16T07:15:26;4.28;;;2.17;;
69170;SDS011;56279;47.902;12.308;2023-07-16T07:17:27;5.28;;;2.10;;
69170;SDS011;56279;47.902;12.308;2023-07-16T07:19:28;4.18;;;2.50;;
69170;SDS011;56279;47.902;12.308;2023-07-16T07:21:29;3.50;;;2.33;;
69170;SDS011;56279;47.902;12.308;2023-07-16T07:23:31;3.20;;;1.90;;
69170;SDS011;56279;47.902;12.308;2023-07-16T07:25:32;3.63;;;1.70;;
69170;SDS011;56279;47.902;12.308;2023-07-16T07:27:34;3.63;;;1.98;;
69170;SDS011;56279;47.902;12.308;2023-07-16T07:29:35;3.40;;;1.90;;
69170;SDS011;56279;47.902;12.308;2023-07-16T07:31:36;3.22;;;1.80;;
69170;SDS011;56279;47.902;12.308;2023-07-16T07:33:39;3.23;;;2.00;;
69170;SDS011;56279;47.902;12.308;2023-07-16T07:35:40;2.70;;;1.63;;
69170;SDS011;56279;47.902;12.308;2023-07-16T07:37:42;2.88;;;1.80;;
69170;SDS011;56279;47.902;12.308;2023-07-16T07:39:43;3.88;;;1.70;;
69170;SDS011;56279;47.902;12.308;2023-07-16T07:41:48;2.75;;;1.70;;
69170;SDS011;56279;47.902;12.308;2023-07-16T07:43:49;4.10;;;1.50;;
69170;SDS011;56279;47.902;12.308;2023-07-16T07:45:50;2.67;;;1.67;;
69170;SDS011;56279;47.902;12.308;2023-07-16T07:47:52;3.38;;;1.70;;
69170;SDS011;56279;47.902;12.308;2023-07-16T07:49:53;3.95;;;1.70;;
69170;SDS011;56279;47.902;12.308;2023-07-16T07:51:54;3.05;;;1.60;;
69170;SDS011;56279;47.902;12.308;2023-07-16T07:53:56;2.70;;;1.70;;
69170;SDS011;56279;47.902;12.308;2023-07-16T07:55:57;3.47;;;1.95;;
69170;SDS011;56279;47.902;12.308;2023-07-16T07:57:58;3.65;;;1.58;;
69170;SDS011;56279;47.902;12.308;2023-07-16T08:00:00;2.28;;;1.38;;
69170;SDS011;56279;47.902;12.308;2023-07-16T08:02:01;2.15;;;1.60;;
69170;SDS011;56279;47.902;12.308;2023-07-16T08:04:03;2.30;;;1.40;;
69170;SDS011;56279;47.902;12.308;2023-07-16T08:06:07;2.40;;;1.42;;
69170;SDS011;56279;47.902;12.308;2023-07-16T08:08:08;2.75;;;1.60;;
69170;SDS011;56279;47.902;12.308;2023-07-16T08:10:09;1.85;;;1.50;;
69170;SDS011;56279;47.902;12.308;2023-07-16T08:12:11;2.72;;;1.60;;
69170;SDS011;56279;47.902;12.308;2023-07-16T08:14:12;2.73;;;1.70;;
69170;SDS011;56279;47.902;12.308;2023-07-16T08:16:14;2.58;;;1.70;;
69170;SDS011;56279;47.902;12.308;2023-07-16T08:18:15;3.83;;;1.85;;
69170;SDS011;56279;47.902;12.308;2023-07-16T08:20:16;3.03;;;1.80;;
69170;SDS011;56279;47.902;12.308;2023-07-16T08:22:18;3.40;;;1.92;;
69170;SDS011;56279;47.902;12.308;2023-07-16T08:24:19;3.07;;;1.63;;
69170;SDS011;56279;47.902;12.308;2023-07-16T08:26:20;2.92;;;1.60;;
69170;SDS011;56279;47.902;12.308;2023-07-16T08:28:21;3.47;;;1.85;;
69170;SDS011;56279;47.902;12.308;2023-07-16T08:30:23;3.70;;;1.88;;
69170;SDS011;56279;47.902;12.308;2023-07-16T08:32:24;3.00;;;1.88;;
69170;SDS011;56279;47.902;12.308;2023-07-16T08:34:25;3.37;;;1.90;;
69170;SDS011;56279;47.902;12.308;2023-07-16T08:36:26;3.83;;;2.10;;
69170;SDS011;56279;47.902;12.308;2023-07-16T08:38:28;4.25;;;1.90;;
69170;SDS011;56279;47.902;12.308;2023-07-16T08:40:29;3.92;;;2.03;;
69170;SDS011;56279;47.902;12.308;2023-07-16T08:42:30;3.85;;;2.08;;
69170;SDS011;56279;47.902;12.308;2023-07-16T08:44:31;3.30;;;2.03;;
69170;SDS011;56279;47.902;12.308;2023-07-16T08:46:34;3.70;;;2.00;;
69170;SDS011;56279;47.902;12.308;2023-07-16T08:48:35;3.53;;;2.15;;
69170;SDS011;56279;47.902;12.308;2023-07-16T08:50:37;4.18;;;2.08;;
69170;SDS011;56279;47.902;12.308;2023-07-16T08:52:39;3.47;;;2.03;;
69170;SDS011;56279;47.902;12.308;2023-07-16T08:54:40;4.03;;;1.87;;
69170;SDS011;56279;47.902;12.308;2023-07-16T08:56:43;2.72;;;1.73;;
69170;SDS011;56279;47.902;12.308;2023-07-16T08:58:44;2.88;;;1.70;;
69170;SDS011;56279;47.902;12.308;2023-07-16T09:00:48;3.35;;;1.85;;
69170;SDS011;56279;47.902;12.308;2023-07-16T09:02:50;2.85;;;1.73;;
69170;SDS011;56279;47.902;12.308;2023-07-16T09:04:55;3.23;;;1.80;;
69170;SDS011;56279;47.902;12.308;2023-07-16T09:06:57;2.83;;;1.95;;
69170;SDS011;56279;47.902;12.308;2023-07-16T09:08:58;3.05;;;1.83;;
69170;SDS011;56279;47.902;12.308;2023-07-16T09:11:00;3.67;;;2.10;;
69170;SDS011;56279;47.902;12.308;2023-07-16T09:13:01;3.25;;;1.85;;
69170;SDS011;56279;47.902;12.308;2023-07-16T09:15:03;3.30;;;2.00;;
69170;SDS011;56279;47.902;12.308;2023-07-16T09:17:05;3.22;;;1.80;;
69170;SDS011;56279;47.902;12.308;2023-07-16T09:19:09;3.78;;;1.75;;
69170;SDS011;56279;47.902;12.308;2023-07-16T09:21:11;4.38;;;2.30;;
69170;SDS011;56279;47.902;12.308;2023-07-16T09:23:12;3.30;;;2.00;;
69170;SDS011;56279;47.902;12.308;2023-07-16T09:25:14;3.87;;;2.20;;
69170;SDS011;56279;47.902;12.308;2023-07-16T09:27:15;3.75;;;2.30;;
69170;SDS011;56279;47.902;12.308;2023-07-16T09:29:17;3.90;;;2.30;;
69170;SDS011;56279;47.902;12.308;2023-07-16T09:31:19;4.32;;;2.40;;
69170;SDS011;56279;47.902;12.308;2023-07-16T09:33:20;5.03;;;2.33;;
69170;SDS011;56279;47.902;12.308;2023-07-16T09:35:27;5.37;;;2.30;;
69170;SDS011;56279;47.902;12.308;2023-07-16T09:37:28;4.22;;;2.20;;
69170;SDS011;56279;47.902;12.308;2023-07-16T09:39:30;3.85;;;2.22;;
69170;SDS011;56279;47.902;12.308;2023-07-16T09:41:33;4.20;;;2.35;;
69170;SDS011;56279;47.902;12.308;2023-07-16T09:43:35;3.78;;;2.35;;
69170;SDS011;56279;47.902;12.308;2023-07-16T09:45:37;4.43;;;2.27;;
69170;SDS011;56279;47.902;12.308;2023-07-16T09:47:38;3.72;;;1.95;;
69170;SDS011;56279;47.902;12.308;2023-07-16T09:49:41;4.10;;;2.42;;
69170;SDS011;56279;47.902;12.308;2023-07-16T09:51:44;4.47;;;2.22;;
69170;SDS011;56279;47.902;12.308;2023-07-16T09:53:46;4.55;;;2.30;;
69170;SDS011;56279;47.902;12.308;2023-07-16T09:55:49;4.03;;;2.20;;
69170;SDS011;56279;47.902;12.308;2023-07-16T09:57:55;3.58;;;2.13;;
69170;SDS011;56279;47.902;12.308;2023-07-16T09:59:58;3.72;;;2.05;;
69170;SDS011;56279;47.902;12.308;2023-07-16T10:02:13;3.60;;;1.80;;
69170;SDS011;56279;47.902;12.308;2023-07-16T10:04:18;4.47;;;2.13;;
69170;SDS011;56279;47.902;12.308;2023-07-16T10:06:20;3.00;;;1.80;;
69170;SDS011;56279;47.902;12.308;2023-07-16T10:08:21;3.70;;;1.88;;
69170;SDS011;56279;47.902;12.308;2023-07-16T10:10:25;2.83;;;1.80;;
69170;SDS011;56279;47.902;12.308;2023-07-16T10:12:27;4.38;;;1.92;;
69170;SDS011;56279;47.902;12.308;2023-07-16T10:14:29;4.70;;;2.13;;
69170;SDS011;56279;47.902;12.308;2023-07-16T10:16:35;4.40;;;2.00;;
69170;SDS011;56279;47.902;12.308;2023-07-16T10:18:38;5.20;;;2.00;;
69170;SDS011;56279;47.902;12.308;2023-07-16T10:20:40;3.15;;;1.80;;
69170;SDS011;56279;47.902;12.308;2023-07-16T10:22:47;3.00;;;1.70;;
69170;SDS011;56279;47.902;12.308;2023-07-16T10:24:52;5.30;;;2.17;;
69170;SDS011;56279;47.902;12.308;2023-07-16T10:26:54;3.10;;;1.80;;
69170;SDS011;56279;47.902;12.308;2023-07-16T10:28:56;3.10;;;1.70;;
69170;SDS011;56279;47.902;12.308;2023-07-16T10:30:57;3.90;;;1.60;;
69170;SDS011;56279;47.902;12.308;2023-07-16T10:33:02;3.50;;;1.55;;
69170;SDS011;56279;47.902;12.308;2023-07-16T10:35:07;5.20;;;1.50;;
69170;SDS011;56279;47.902;12.308;2023-07-16T10:37:09;2.93;;;1.70;;
69170;SDS011;56279;47.902;12.308;2023-07-16T10:39:10;4.28;;;1.60;;
69170;SDS011;56279;47.902;12.308;2023-07-16T10:41:12;2.42;;;1.50;;
69170;SDS011;56279;47.902;12.308;2023-07-16T10:43:13;2.30;;;1.58;;
69170;SDS011;56279;47.902;12.308;2023-07-16T10:45:15;3.03;;;1.48;;
69170;SDS011;56279;47.902;12.308;2023-07-16T10:49:27;3.35;;;1.73;;
69170;SDS011;56279;47.902;12.308;2023-07-16T10:51:29;2.92;;;1.63;;
69170;SDS011;56279;47.902;12.308;2023-07-16T10:53:30;2.95;;;1.70;;
69170;SDS011;56279;47.902;12.308;2023-07-16T10:55:31;2.33;;;1.60;;
69170;SDS011;56279;47.902;12.308;2023-07-16T10:57:39;3.70;;;1.67;;
69170;SDS011;56279;47.902;12.308;2023-07-16T10:59:42;3.67;;;1.90;;
69170;SDS011;56279;47.902;12.308;2023-07-16T11:01:48;3.10;;;1.70;;
69170;SDS011;56279;47.902;12.308;2023-07-16T11:03:49;4.38;;;1.73;;
69170;SDS011;56279;47.902;12.308;2023-07-16T11:05:50;4.05;;;2.30;;
69170;SDS011;56279;47.902;12.308;2023-07-16T11:07:52;4.23;;;2.23;;
69170;SDS011;56279;47.902;12.308;2023-07-16T11:09:54;3.10;;;1.90;;
69170;SDS011;56279;47.902;12.308;2023-07-16T11:11:55;2.75;;;1.85;;
69170;SDS011;56279;47.902;12.308;2023-07-16T11:14:06;4.35;;;2.30;;
69170;SDS011;56279;47.902;12.308;2023-07-16T11:16:08;3.80;;;2.05;;
69170;SDS011;56279;47.902;12.308;2023-07-16T11:18:11;4.40;;;2.23;;
69170;SDS011;56279;47.902;12.308;2023-07-16T11:20:12;2.95;;;1.90;;
69170;SDS011;56279;47.902;12.308;2023-07-16T11:22:14;4.40;;;2.10;;
69170;SDS011;56279;47.902;12.308;2023-07-16T11:24:15;6.28;;;3.17;;
69170;SDS011;56279;47.902;12.308;2023-07-16T11:26:17;5.43;;;2.55;;
69170;SDS011;56279;47.902;12.308;2023-07-16T11:28:19;3.87;;;2.10;;
69170;SDS011;56279;47.902;12.308;2023-07-16T11:30:23;4.10;;;2.20;;
69170;SDS011;56279;47.902;12.308;2023-07-16T11:32:32;3.78;;;2.00;;
69170;SDS011;56279;47.902;12.308;2023-07-16T11:34:34;3.22;;;1.95;;
69170;SDS011;56279;47.902;12.308;2023-07-16T11:36:36;4.07;;;2.50;;
69170;SDS011;56279;47.902;12.308;2023-07-16T11:38:38;3.80;;;2.20;;
69170;SDS011;56279;47.902;12.308;2023-07-16T11:40:39;4.30;;;2.10;;
69170;SDS011;56279;47.902;12.308;2023-07-16T11:42:41;3.95;;;1.95;;
69170;SDS011;56279;47.902;12.308;2023-07-16T11:44:48;4.72;;;2.15;;
69170;SDS011;56279;47.902;12.308;2023-07-16T11:46:50;4.38;;;2.15;;
69170;SDS011;56279;47.902;12.308;2023-07-16T11:48:51;3.27;;;1.87;;
69170;SDS011;56279;47.902;12.308;2023-07-16T11:50:52;3.05;;;1.80;;
69170;SDS011;56279;47.902;12.308;2023-07-16T11:52:54;3.22;;;2.10;;
69170;SDS011;56279;47.902;12.308;2023-07-16T11:54:57;4.25;;;2.03;;
69170;SDS011;56279;47.902;12.308;2023-07-16T11:57:02;3.25;;;2.00;;
69170;SDS011;56279;47.902;12.308;2023-07-16T11:59:04;2.73;;;1.80;;
69170;SDS011;56279;47.902;12.308;2023-07-16T12:01:06;3.88;;;1.90;;
69170;SDS011;56279;47.902;12.308;2023-07-16T12:03:07;3.85;;;1.85;;
69170;SDS011;56279;47.902;12.308;2023-07-16T12:05:08;5.43;;;1.98;;
69170;SDS011;56279;47.902;12.308;2023-07-16T12:07:10;3.72;;;2.00;;
69170;SDS011;56279;47.902;12.308;2023-07-16T12:09:11;3.37;;;1.97;;